Time;durP1;ratioP1;P1;durP2;ratioP2;P2;SDS_P1;SDS_P2;PMS_P1;PMS_P2;Temp;Humidity;BMP_temperature;BMP_pressure;BME280_temperature;BME280_humidity;BME280_pressure;Samples;Min_cycle;Max_cycle;Signal;HPM_P1;HPM_P2
2021/12/13 00:00:27;;;;;;;7.72;3.85;;;;;;;6.21;97.68;96829.47;5065907;28;20084;-63
2021/12/13 00:03:26;;;;;;;7.57;4.07;;;;;;;6.18;100.00;96813.63;5067012;28;20057;-61
2021/12/13 00:05:59;;;;;;;5.45;3.70;;;;;;;6.18;100.00;96818.34;5065207;28;20052;-65
2021/12/13 00:08:33;;;;;;;13.60;6.15;;;;;;;6.20;99.76;96816.06;4891790;28;5000944;-61
2021/12/13 00:11:08;;;;;;;10.25;3.72;;;;;;;6.27;100.00;96817.06;5067158;28;20507;-61
2021/12/13 00:13:58;;;;;;;6.60;3.38;;;;;;;6.16;99.70;96804.94;5066818;28;20044;-62
2021/12/13 00:16:35;;;;;;;3.88;2.10;;;;;;;5.66;96.13;96746.81;5066311;28;20044;-64
2021/12/13 00:19:15;;;;;;;5.82;2.17;;;;;;;6.08;98.72;96814.13;4878881;28;5000149;-64
2021/12/13 00:21:46;;;;;;;5.93;3.63;;;;;;;6.09;98.05;96832.22;5047101;28;20155;-61
2021/12/13 00:24:22;;;;;;;19.02;5.90;;;;;;;5.93;96.56;96828.56;5046539;28;20083;-61
2021/12/13 00:27:01;;;;;;;10.55;4.50;;;;;;;5.86;96.83;96833.84;5045238;28;20044;-64
2021/12/13 00:29:37;;;;;;;10.25;3.67;;;;;;;5.79;98.88;96845.41;5046853;28;20049;-63
2021/12/13 00:32:18;;;;;;;5.97;2.40;;;;;;;5.83;98.67;96840.03;4870805;28;5000497;-61
2021/12/13 00:34:52;;;;;;;4.65;2.45;;;;;;;5.78;99.47;96845.75;5046241;28;20394;-64
2021/12/13 00:37:28;;;;;;;12.63;2.72;;;;;;;5.70;99.06;96846.66;5046943;28;20539;-61
2021/12/13 00:40:00;;;;;;;7.05;3.22;;;;;;;5.67;98.15;96836.34;5045281;28;20056;-64
2021/12/13 00:42:35;;;;;;;5.00;2.20;;;;;;;5.55;100.00;96845.38;4871016;28;5000208;-64
2021/12/13 00:45:08;;;;;;;12.32;4.30;;;;;;;5.48;100.00;96849.84;5046336;28;20057;-64
2021/12/13 00:47:38;;;;;;;6.82;2.50;;;;;;;5.29;99.79;96803.72;5046133;28;20059;-65
2021/12/13 00:50:11;;;;;;;6.82;3.13;;;;;;;5.42;99.21;96812.78;5046640;28;20159;-64
2021/12/13 00:52:43;;;;;;;7.35;2.38;;;;;;;5.66;99.27;96862.22;4870823;28;5000168;-64
2021/12/13 00:55:13;;;;;;;10.60;2.72;;;;;;;5.69;98.88;96856.06;5046399;28;20071;-64
2021/12/13 00:57:47;;;;;;;9.70;3.15;;;;;;;5.69;99.39;96856.84;5045380;28;20055;-64
2021/12/13 01:00:31;;;;;;;9.23;2.17;;;;;;;5.72;99.96;96849.88;5046165;28;20049;-64
2021/12/13 01:03:09;;;;;;;;;;;;;;;5.76;100.00;96846.09;5045247;28;20057;-63
2021/12/13 01:05:57;;;;;;;9.77;3.00;;;;;;;5.73;98.28;96851.47;4871740;28;5001112;-61
2021/12/13 01:08:58;;;;;;;9.55;2.85;;;;;;;5.61;98.86;96848.72;5045953;28;20071;-62
2021/12/13 01:11:51;;;;;;;5.70;2.00;;;;;;;5.27;100.00;96794.22;5043991;28;20553;-62
2021/12/13 01:14:27;;;;;;;9.23;1.73;;;;;;;5.59;98.65;96845.50;5050762;28;20041;-61
2021/12/13 01:17:10;;;;;;;9.18;1.67;;;;;;;5.26;96.46;96858.53;5054192;28;20456;-65
2021/12/13 01:19:55;;;;;;;5.63;1.25;;;;;;;5.20;95.15;96854.41;5063883;28;20430;-61
2021/12/13 01:22:51;;;;;;;6.05;2.28;;;;;;;5.44;98.72;96848.91;5065360;28;20486;-62
2021/12/13 01:28:37;;;;;;;3.22;1.60;;;;;;;5.29;94.88;96838.63;5065520;28;20051;-63
2021/12/13 01:31:09;;;;;;;4.28;2.05;;;;;;;5.26;94.72;96825.56;5064943;28;20135;-61
2021/12/13 01:33:40;;;;;;;7.82;3.60;;;;;;;5.52;95.24;96834.28;5065310;28;20059;-65
2021/12/13 01:36:10;;;;;;;37.17;17.35;;;;;;;5.15;93.84;96775.00;5055276;28;20048;-64
2021/12/13 01:38:50;;;;;;;11.85;5.60;;;;;;;5.48;91.83;96828.69;5059416;28;20056;-64
2021/12/13 01:41:29;;;;;;;5.90;2.45;;;;;;;5.36;93.04;96814.16;5064300;28;20048;-61
2021/12/13 01:44:01;;;;;;;4.10;1.92;;;;;;;5.35;93.28;96829.00;5065315;28;20071;-61
2021/12/13 01:46:28;;;;;;;14.43;6.77;;;;;;;4.94;95.50;96774.28;4890154;28;5000401;-63
2021/12/13 01:48:57;;;;;;;9.45;5.07;;;;;;;5.48;96.45;96844.34;5065246;28;20303;-61
2021/12/13 01:51:26;;;;;;;27.48;13.93;;;;;;;5.58;97.15;96832.94;5064646;28;20507;-61
2021/12/13 01:54:01;;;;;;;23.83;10.85;;;;;;;5.56;95.40;96846.19;5064946;28;20545;-61
2021/12/13 01:59:55;;;;;;;23.30;9.48;;;;;;;5.65;95.36;96855.13;4899161;28;5001903;-61
2021/12/13 02:02:48;;;;;;;18.65;8.68;;;;;;;5.57;96.97;96823.06;5064544;28;20507;-64
2021/12/13 02:05:23;;;;;;;28.00;13.83;;;;;;;4.80;95.35;96691.50;5063144;28;20055;-64
2021/12/13 02:08:06;;;;;;;8.15;4.05;;;;;;;5.66;95.69;96841.03;5063889;28;20040;-63
2021/12/13 02:10:35;;;;;;;8.82;4.40;;;;;;;5.66;97.26;96840.22;5063706;28;20515;-62
2021/12/13 02:13:10;;;;;;;31.75;13.82;;;;;;;5.66;96.37;96834.72;5064653;28;20053;-64
2021/12/13 02:18:34;;;;;;;35.35;15.05;;;;;;;5.49;96.60;96807.50;4881783;28;5000413;-62
2021/12/13 02:21:22;;;;;;;18.45;8.18;;;;;;;4.83;95.36;96745.69;5044096;28;20049;-64
2021/12/13 02:23:51;;;;;;;18.15;9.52;;;;;;;5.73;95.64;96837.72;5043398;28;20053;-64
2021/12/13 02:26:18;;;;;;;14.95;7.03;;;;;;;5.41;95.86;96795.47;5045129;28;20895;-65
2021/12/13 02:28:54;;;;;;;30.83;16.08;;;;;;;5.67;96.45;96859.16;5043399;28;20079;-61
2021/12/13 02:31:28;;;;;;;12.38;5.72;;;;;;;5.28;97.69;96780.13;4869029;28;5001020;-61
2021/12/13 02:34:00;;;;;;;10.55;4.72;;;;;;;5.82;95.58;96846.66;5043445;28;20055;-61
2021/12/13 02:36:31;;;;;;;15.07;7.30;;;;;;;5.86;97.07;96844.84;5043449;28;20053;-64
2021/12/13 02:39:03;;;;;;;12.93;6.45;;;;;;;5.50;96.85;96809.13;5044967;28;20061;-64
2021/12/13 02:41:31;;;;;;;11.43;4.32;;;;;;;5.67;95.87;96811.63;4870466;28;5000235;-61
2021/12/13 02:44:08;;;;;;;6.60;2.75;;;;;;;5.32;95.70;96755.56;5043005;28;20063;-62
2021/12/13 02:46:37;;;;;;;7.25;3.35;;;;;;;5.87;96.44;96841.75;5042920;28;20057;-64
2021/12/13 02:49:09;;;;;;;14.05;4.47;;;;;;;5.91;94.90;96837.16;5044826;28;20057;-64
2021/12/13 02:51:38;;;;;;;9.00;4.07;;;;;;;5.89;95.34;96838.66;4870236;28;5000226;-65
2021/12/13 02:54:10;;;;;;;13.20;5.32;;;;;;;5.72;96.64;96800.41;5044909;28;20057;-60
2021/12/13 02:56:46;;;;;;;13.63;4.80;;;;;;;5.91;96.61;96836.38;5043979;28;20518;-62
2021/12/13 02:59:14;;;;;;;9.85;4.70;;;;;;;5.64;96.74;96782.09;5043088;28;20060;-64
2021/12/13 03:01:52;;;;;;;6.22;3.83;;;;;;;5.88;96.04;96817.84;5042484;28;20045;-65
2021/12/13 03:04:24;;;;;;;11.88;6.20;;;;;;;5.97;94.52;96824.00;4869945;28;5000595;-64
2021/12/13 03:07:00;;;;;;;8.43;5.18;;;;;;;5.75;95.22;96827.19;5044085;28;20045;-65
2021/12/13 03:09:29;;;;;;;7.55;5.13;;;;;;;5.77;96.06;96824.91;5044184;28;20053;-62
2021/12/13 03:11:57;;;;;;;6.70;3.97;;;;;;;5.02;95.07;96721.22;5043963;28;20049;-65
2021/12/13 03:14:29;;;;;;;8.70;3.83;;;;;;;5.67;94.95;96841.84;5057303;28;20543;-64
2021/12/13 03:17:06;;;;;;;4.32;2.30;;;;;;;5.50;94.63;96809.13;5043008;28;20053;-61
2021/12/13 03:19:48;;;;;;;6.15;3.03;;;;;;;5.63;95.69;96829.94;5060806;28;20052;-64
2021/12/13 03:22:20;;;;;;;6.78;3.88;;;;;;;5.61;96.60;96826.75;5064611;28;20507;-61
2021/12/13 03:25:08;;;;;;;6.75;3.78;;;;;;;5.39;96.17;96836.22;4891436;28;5000135;-61
2021/12/13 03:28:20;;;;;;;6.78;3.15;;;;;;;5.49;95.38;96834.97;5067862;28;20223;-61
2021/12/13 03:30:55;;;;;;;7.03;2.63;;;;;;;5.16;95.95;96787.56;5056626;28;20058;-63
2021/12/13 03:33:41;;;;;;;7.80;2.75;;;;;;;5.50;96.84;96831.09;5067589;28;20052;-64
2021/12/13 03:36:13;;;;;;;23.23;9.82;;;;;;;5.40;93.98;96842.53;5066093;28;20462;-63
2021/12/13 03:38:46;;;;;;;7.90;3.40;;;;;;;5.37;95.26;96848.69;5067665;28;20063;-64
2021/12/13 03:41:19;;;;;;;5.43;2.60;;;;;;;4.68;95.58;96749.88;5067399;28;20052;-64
2021/12/13 03:43:49;;;;;;;10.35;3.53;;;;;;;5.31;95.86;96866.53;5067585;28;20079;-61
2021/12/13 03:46:19;;;;;;;13.68;5.10;;;;;;;5.35;96.82;96872.94;4892406;28;5000773;-63
2021/12/13 03:48:48;;;;;;;7.95;2.63;;;;;;;5.39;96.14;96871.91;5067577;28;20056;-65
2021/12/13 03:51:19;;;;;;;5.75;2.10;;;;;;;5.35;96.75;96846.28;5067372;28;20118;-61
2021/12/13 03:53:49;;;;;;;5.45;2.03;;;;;;;5.44;96.75;96881.88;5065532;28;20048;-61
2021/12/13 03:56:21;;;;;;;4.83;2.57;;;;;;;5.44;96.91;96873.63;4892416;28;5000732;-65
2021/12/13 03:58:52;;;;;;;3.65;2.30;;;;;;;5.31;96.08;96834.38;5067255;28;20084;-65
2021/12/13 04:01:26;;;;;;;4.03;1.80;;;;;;;5.24;96.85;96827.84;5066904;28;20052;-65
2021/12/13 04:03:57;;;;;;;3.95;1.85;;;;;;;5.38;95.42;96867.56;5066879;28;20060;-61
2021/12/13 04:06:24;;;;;;;8.23;3.90;;;;;;;5.41;96.61;96874.31;5066982;28;20439;-65
2021/12/13 04:08:55;;;;;;;4.68;2.65;;;;;;;5.42;95.12;96873.19;4890303;28;5001001;-61
2021/12/13 04:11:24;;;;;;;3.38;1.77;;;;;;;5.57;95.86;96875.25;5067032;28;20052;-61
2021/12/13 04:14:00;;;;;;;4.68;2.13;;;;;;;5.49;96.14;96878.91;5067364;28;20045;-66
2021/12/13 04:16:49;;;;;;;8.43;3.30;;;;;;;5.55;97.64;96880.28;5067258;28;20052;-64
2021/12/13 04:19:23;;;;;;;9.00;3.72;;;;;;;5.57;95.84;96886.25;4886831;28;5000984;-65
2021/12/13 04:21:58;;;;;;;4.15;1.95;;;;;;;4.45;93.20;96762.38;5047033;28;20518;-64
2021/12/13 04:24:51;;;;;;;6.57;2.30;;;;;;;5.37;93.20;96882.47;5046698;28;20063;-63
2021/12/13 04:27:23;;;;;;;3.72;1.70;;;;;;;5.12;90.54;96863.53;5044910;28;20053;-66
2021/12/13 04:29:56;;;;;;;4.47;1.53;;;;;;;4.94;90.04;96895.03;4872234;28;5001235;-61
2021/12/13 04:32:31;;;;;;;4.82;2.20;;;;;;;4.62;93.45;96891.13;5046218;28;20072;-63
2021/12/13 04:35:03;;;;;;;5.80;2.38;;;;;;;4.93;98.93;96893.44;5046820;28;20049;-65
2021/12/13 04:37:37;;;;;;;6.70;3.15;;;;;;;4.19;99.38;96773.59;5046557;28;20431;-63
2021/12/13 04:40:27;;;;;;;4.53;2.42;;;;;;;4.76;100.00;96893.59;5046900;28;20534;-60
2021/12/13 04:42:59;;;;;;;17.52;8.57;;;;;;;4.97;100.00;96894.34;4871026;28;5001059;-61
2021/12/13 04:45:30;;;;;;;10.05;5.03;;;;;;;5.08;100.00;96895.53;5061632;28;20143;-65
2021/12/13 04:48:28;;;;;;;11.73;6.30;;;;;;;5.15;100.00;96895.78;5045227;28;20061;-64
2021/12/13 04:51:03;;;;;;;16.00;7.05;;;;;;;5.26;100.00;96891.47;5033999;28;20056;-64
2021/12/13 04:53:36;;;;;;;24.88;10.18;;;;;;;5.35;100.00;96886.69;4872175;28;5000551;-63
2021/12/13 04:56:07;;;;;;;18.48;8.05;;;;;;;5.10;100.00;96850.16;5046243;28;20074;-61
2021/12/13 04:58:36;;;;;;;22.60;9.13;;;;;;;5.25;100.00;96862.41;5044705;28;20067;-65
2021/12/13 05:01:07;;;;;;;19.63;7.25;;;;;;;5.10;100.00;96874.84;5045793;28;20045;-64
2021/12/13 05:03:39;;;;;;;13.45;6.30;;;;;;;4.69;100.00;96822.81;4872147;28;5000042;-60
2021/12/13 05:06:14;;;;;;;22.88;7.13;;;;;;;4.44;100.00;96823.88;5044935;28;20056;-61
2021/12/13 05:08:44;;;;;;;16.23;7.50;;;;;;;4.50;100.00;96826.03;5045858;28;20055;-62
2021/12/13 05:11:12;;;;;;;19.60;7.38;;;;;;;4.90;100.00;96872.16;5044372;28;20059;-62
2021/12/13 05:13:46;;;;;;;15.50;6.05;;;;;;;4.79;99.40;96876.47;5045401;28;20053;-65
2021/12/13 05:16:15;;;;;;;13.75;6.63;;;;;;;4.92;100.00;96902.78;5044888;28;20064;-61
2021/12/13 05:18:54;;;;;;;14.75;6.28;;;;;;;4.58;100.00;96871.00;5045877;28;20062;-61
2021/12/13 05:21:28;;;;;;;11.15;5.97;;;;;;;4.88;100.00;96890.91;5044389;28;20049;-64
2021/12/13 05:23:58;;;;;;;8.63;4.18;;;;;;;4.87;100.00;96901.06;5045589;28;20523;-64
2021/12/13 05:26:30;;;;;;;9.77;5.72;;;;;;;4.89;100.00;96900.72;4870003;28;5000659;-60
2021/12/13 05:28:57;;;;;;;11.30;5.43;;;;;;;4.35;100.00;96812.16;5045524;28;20044;-64
2021/12/13 05:31:25;;;;;;;10.30;4.45;;;;;;;4.90;100.00;96899.59;5044918;28;20521;-65
2021/12/13 05:33:55;;;;;;;14.27;6.97;;;;;;;4.92;100.00;96902.78;5045685;28;20053;-61
2021/12/13 05:36:29;;;;;;;20.58;7.55;;;;;;;4.97;100.00;96906.13;4869850;28;5000715;-61
2021/12/13 05:39:01;;;;;;;;;;;;;;;4.92;100.00;96903.59;5050636;28;20048;-63
2021/12/13 05:41:30;;;;;;;44.08;16.98;;;;;;;4.88;100.00;96907.34;5045157;28;19925;-62
2021/12/13 05:44:02;;;;;;;20.10;8.85;;;;;;;4.39;100.00;96827.59;5044480;28;20049;-63
2021/12/13 05:46:49;;;;;;;22.28;9.93;;;;;;;4.92;100.00;96909.09;4871387;28;5000631;-64
2021/12/13 05:49:24;;;;;;;24.35;10.70;;;;;;;4.94;100.00;96911.50;5044846;28;20064;-63
2021/12/13 05:52:04;;;;;;;42.90;19.20;;;;;;;4.80;100.00;96889.84;5044972;28;20137;-64
2021/12/13 05:54:35;;;;;;;24.05;11.43;;;;;;;5.00;100.00;96904.66;5060006;28;20057;-64
2021/12/13 05:57:05;;;;;;;26.35;12.80;;;;;;;5.11;100.00;96911.31;5043521;28;20500;-64
2021/12/13 06:00:05;;;;;;;14.65;7.95;;;;;;;5.09;100.00;96908.91;4870708;28;5000805;-63
2021/12/13 06:02:59;;;;;;;25.35;15.23;;;;;;;5.17;100.00;96915.47;5044534;28;20045;-65
2021/12/13 06:05:26;;;;;;;;;;;;;;;5.15;100.00;96917.75;5043810;28;20167;-64
2021/12/13 06:07:59;;;;;;;22.92;11.90;;;;;;;5.18;100.00;96925.31;5044773;28;19924;-64
2021/12/13 06:10:57;;;;;;;31.10;17.00;;;;;;;5.05;100.00;96920.91;4885331;28;5000037;-64
2021/12/13 06:13:33;;;;;;;20.02;11.55;;;;;;;5.17;100.00;96920.97;5043981;28;20056;-63
2021/12/13 06:16:00;;;;;;;22.05;14.05;;;;;;;5.24;100.00;96915.72;5044223;28;20053;-64
2021/12/13 06:18:36;;;;;;;27.50;13.77;;;;;;;5.19;100.00;96918.66;5044784;28;20152;-63
2021/12/13 06:21:30;;;;;;;19.60;9.75;;;;;;;4.73;100.00;96850.38;4867613;28;5000430;-66
2021/12/13 06:23:57;;;;;;;24.20;12.13;;;;;;;5.13;100.00;96874.16;5066564;28;20067;-62
2021/12/13 06:26:30;;;;;;;71.63;27.05;;;;;;;5.15;100.00;96917.75;5057412;28;20065;-66
2021/12/13 06:29:00;;;;;;;208.52;84.72;;;;;;;5.45;99.97;96924.69;5057290;28;20049;-62
2021/12/13 06:31:47;;;;;;;49.28;25.45;;;;;;;5.45;98.13;96936.50;4887659;28;5000961;-62
2021/12/13 06:34:16;;;;;;;30.00;15.45;;;;;;;5.55;98.19;96930.53;5062975;28;20064;-64
2021/12/13 06:36:47;;;;;;;22.23;10.15;;;;;;;5.48;97.30;96924.00;5062492;28;20600;-66
2021/12/13 06:39:20;;;;;;;18.25;8.10;;;;;;;5.58;94.58;96938.09;5059353;28;20463;-64
2021/12/13 06:41:52;;;;;;;25.25;7.80;;;;;;;5.17;91.36;96927.25;4868823;28;5000928;-61
2021/12/13 06:44:36;;;;;;;20.48;8.38;;;;;;;5.50;92.59;96929.97;5044323;28;20049;-61
2021/12/13 06:47:07;;;;;;;26.20;13.23;;;;;;;5.19;91.19;96908.50;5043578;28;20059;-62
2021/12/13 06:49:56;;;;;;;15.05;9.45;;;;;;;4.93;92.61;96806.44;5044256;28;20122;-60
2021/12/13 06:52:32;;;;;;;20.52;8.63;;;;;;;5.12;89.86;96861.56;5042201;28;20523;-64
2021/12/13 06:55:01;;;;;;;11.73;5.13;;;;;;;5.70;90.77;96940.06;4868922;28;5001953;-61
2021/12/13 06:57:36;;;;;;;22.92;9.35;;;;;;;5.29;90.79;96868.81;5067826;28;20048;-65
2021/12/13 07:00:15;;;;;;;15.80;7.45;;;;;;;5.48;91.95;96891.06;5067789;28;20052;-61
2021/12/13 07:02:46;;;;;;;14.38;7.05;;;;;;;4.28;90.63;96686.59;5067804;28;20048;-61
2021/12/13 07:05:33;;;;;;;19.88;10.38;;;;;;;5.94;90.97;96959.38;4893026;28;5000112;-62
2021/12/13 07:08:10;;;;;;;19.38;9.43;;;;;;;5.82;91.34;96921.69;5066289;28;20066;-62
2021/12/13 07:10:51;;;;;;;14.70;9.32;;;;;;;5.74;89.82;96919.00;5066581;28;20465;-64
2021/12/13 07:13:37;;;;;;;29.48;11.20;;;;;;;6.06;91.08;96959.38;5067392;28;20052;-65
2021/12/13 07:16:07;;;;;;;31.08;13.35;;;;;;;6.03;91.04;96960.88;4884008;28;5000989;-63
2021/12/13 07:18:47;;;;;;;10.85;5.28;;;;;;;5.75;87.51;96932.41;5044811;28;20057;-63
2021/12/13 07:21:32;;;;;;;4.88;2.47;;;;;;;5.60;83.84;96935.81;5044285;28;20056;-63
2021/12/13 07:24:05;;;;;;;7.32;3.90;;;;;;;6.02;84.07;96964.75;5045772;28;20059;-63
2021/12/13 07:27:04;;;;;;;8.35;4.35;;;;;;;5.98;85.96;96985.84;5057086;28;20056;-63
2021/12/13 07:29:33;;;;;;;9.82;4.40;;;;;;;5.98;82.43;96985.03;5045174;28;20301;-63
2021/12/13 07:32:31;;;;;;;7.65;4.13;;;;;;;4.87;83.76;96890.06;5044541;28;20061;-63
2021/12/13 07:35:08;;;;;;;9.70;5.20;;;;;;;5.81;85.27;96993.47;5045600;28;20052;-67
2021/12/13 07:37:44;;;;;;;8.40;3.88;;;;;;;5.83;83.95;96999.44;4869858;28;5000284;-64
2021/12/13 07:40:14;;;;;;;11.05;4.97;;;;;;;5.78;84.65;97005.13;5044699;28;20139;-67
2021/12/13 07:42:51;;;;;;;7.20;4.18;;;;;;;5.75;85.76;97033.28;5045996;28;20283;-65
2021/12/13 07:45:32;;;;;;;5.85;3.47;;;;;;;5.64;87.49;96996.41;5046114;28;20060;-65
2021/12/13 07:48:06;;;;;;;9.15;4.30;;;;;;;5.67;87.25;97013.00;4872073;28;5000496;-65
2021/12/13 07:50:35;;;;;;;6.18;3.38;;;;;;;5.60;85.05;97018.25;5046926;28;20441;-66
2021/12/13 07:53:05;;;;;;;9.50;3.35;;;;;;;5.69;83.12;97020.91;5046812;28;20071;-64
2021/12/13 07:55:32;;;;;;;7.00;3.90;;;;;;;4.61;83.13;96871.13;5046243;28;20547;-62
2021/12/13 07:58:04;;;;;;;5.50;2.66;;;;;;;5.48;82.64;97025.66;4870289;28;5001135;-66
2021/12/13 08:00:39;;;;;;;12.38;4.72;;;;;;;5.50;82.39;97017.88;5044241;28;20060;-64
2021/12/13 08:03:11;;;;;;;9.40;4.25;;;;;;;5.43;83.08;97014.88;5045650;28;20323;-62
2021/12/13 08:05:53;;;;;;;8.77;4.68;;;;;;;5.48;84.39;97017.41;5044249;28;20044;-64
2021/12/13 08:08:27;;;;;;;13.52;5.47;;;;;;;5.39;82.36;96979.03;5041606;28;20059;-61
2021/12/13 08:11:00;;;;;;;12.10;5.17;;;;;;;5.70;82.82;97028.00;4870890;28;5000959;-64
2021/12/13 09:26:28;;;;;;;17.65;6.88;;;;;;;6.29;78.04;96896.47;4878970;28;5000738;-67
2021/12/13 09:29:01;;;;;;;11.85;5.55;;;;;;;7.04;76.72;97017.53;5065477;28;20080;-64
2021/12/13 09:31:33;;;;;;;5.97;3.25;;;;;;;5.38;75.29;96768.72;5049107;28;20048;-64
2021/12/13 09:34:08;;;;;;;6.57;3.67;;;;;;;7.08;77.58;97018.41;5044913;28;20055;-65
2021/12/13 09:36:38;;;;;;;19.46;8.77;;;;;;;5.53;79.10;97011.72;4871122;28;5000886;-64
2021/12/13 09:39:12;;;;;;;34.55;18.77;;;;;;;6.46;81.53;96901.72;5044505;28;20053;-64
2021/12/13 09:41:52;;;;;;;10.68;5.50;;;;;;;7.25;83.87;97012.66;5054546;28;20044;-64
2021/12/13 09:44:32;;;;;;;11.95;5.65;;;;;;;6.88;82.82;96947.00;5056723;28;20055;-64
2021/12/13 09:47:09;;;;;;;15.25;9.23;;;;;;;6.08;84.45;96825.13;5045920;28;20053;-64
2021/12/13 09:49:46;;;;;;;13.50;5.22;;;;;;;7.14;83.30;97008.78;4870678;28;5000731;-64
2021/12/13 09:52:25;;;;;;;8.23;4.30;;;;;;;6.89;85.40;97009.97;5062144;28;20063;-63
2021/12/13 09:54:59;;;;;;;11.65;7.25;;;;;;;7.01;87.73;97006.41;5063464;28;20052;-63
2021/12/13 09:57:35;;;;;;;10.32;6.20;;;;;;;6.71;86.44;96937.06;5060032;28;20044;-65
2021/12/13 10:00:15;;;;;;;11.38;6.32;;;;;;;7.33;85.37;97017.19;4874765;28;5000579;-64
2021/12/13 10:02:46;;;;;;;5.95;3.03;;;;;;;7.29;76.49;97018.25;5047602;28;20063;-63
2021/12/13 10:05:17;;;;;;;9.02;4.57;;;;;;;7.29;80.22;97008.03;5044354;28;20053;-64
2021/12/13 10:07:52;;;;;;;11.68;4.65;;;;;;;7.31;77.17;97014.00;5044626;28;20063;-63
2021/12/13 10:10:24;;;;;;;12.70;6.40;;;;;;;7.24;77.46;96988.22;4887405;28;5000469;-64
2021/12/13 10:12:57;;;;;;;18.10;8.10;;;;;;;7.49;74.93;97015.28;5055769;28;20327;-65
2021/12/13 10:15:30;;;;;;;20.00;10.77;;;;;;;7.35;76.86;96992.84;5046121;28;20063;-63
2021/12/13 10:18:07;;;;;;;14.85;7.00;;;;;;;7.56;76.82;97021.00;5064310;28;20052;-64
2021/12/13 10:20:39;;;;;;;14.20;4.47;;;;;;;7.27;76.37;96971.75;5060780;28;20048;-63
2021/12/13 10:23:10;;;;;;;15.50;6.20;;;;;;;7.70;77.01;97021.41;4890229;28;5000404;-64
2021/12/13 10:25:40;;;;;;;8.70;4.82;;;;;;;7.11;75.56;96957.13;5049204;28;20056;-60
2021/12/13 10:28:16;;;;;;;14.05;5.35;;;;;;;7.46;76.01;97021.50;5043960;28;20049;-64
2021/12/13 10:30:55;;;;;;;12.13;5.20;;;;;;;6.41;78.40;96855.97;5052589;28;20052;-63
2021/12/13 10:33:24;;;;;;;11.10;5.38;;;;;;;7.62;75.77;97011.34;4886116;28;5000973;-61
2021/12/13 10:35:53;;;;;;;6.90;3.63;;;;;;;7.45;75.83;97011.66;5058502;28;20060;-60
2021/12/13 10:38:27;;;;;;;5.30;1.70;;;;;;;6.19;70.84;96936.25;5047178;28;20064;-60
2021/12/13 10:40:58;;;;;;;5.22;2.35;;;;;;;6.42;74.78;96901.59;5055673;28;20234;-65
2021/12/13 10:43:31;;;;;;;5.15;3.25;;;;;;;6.43;75.29;96930.72;4881772;28;5000022;-63
2021/12/13 10:46:12;;;;;;;6.07;2.92;;;;;;;6.83;76.79;96961.81;5044634;28;20088;-63
2021/12/13 10:48:45;;;;;;;12.40;4.32;;;;;;;6.89;78.24;96982.44;5058333;28;20068;-63
2021/12/13 10:51:15;;;;;;;;;;;;;;;6.95;77.77;97007.78;5043801;28;20048;-62
2021/12/13 10:53:45;;;;;;;10.73;5.10;;;;;;;6.77;78.07;96987.97;5054681;28;20414;-63
2021/12/13 10:56:18;;;;;;;13.07;6.13;;;;;;;6.51;79.85;96960.06;4888846;28;5000267;-61
2021/12/13 10:58:50;;;;;;;14.15;6.35;;;;;;;6.68;79.03;96995.56;5043650;28;20277;-61
2021/12/13 11:01:21;;;;;;;11.93;6.40;;;;;;;6.67;79.92;97002.22;5042088;28;20045;-61
2021/12/13 11:03:51;;;;;;;14.35;7.45;;;;;;;6.30;82.48;96937.38;5051127;28;20056;-62
2021/12/13 11:06:19;;;;;;;21.95;9.35;;;;;;;6.51;82.19;96992.25;4885547;28;5000705;-62
2021/12/13 11:08:46;;;;;;;15.00;7.13;;;;;;;6.15;82.39;96957.31;5064029;28;20052;-62
2021/12/13 11:11:28;;;;;;;19.40;11.45;;;;;;;5.97;84.31;96878.97;5049924;28;20049;-62
2021/12/13 11:14:00;;;;;;;12.82;6.88;;;;;;;6.35;83.12;96945.41;5049759;28;20053;-62
2021/12/13 11:16:35;;;;;;;27.58;12.70;;;;;;;6.80;83.15;96984.53;4883348;28;5000086;-66
2021/12/13 11:19:06;;;;;;;19.98;8.48;;;;;;;6.10;81.41;96844.84;5054464;28;20052;-63
2021/12/13 11:21:35;;;;;;;13.48;6.30;;;;;;;6.68;82.59;96924.00;5045545;28;20045;-63
2021/12/13 11:24:06;;;;;;;7.18;3.97;;;;;;;6.65;80.16;96916.47;5051846;28;20691;-61
2021/12/13 11:26:37;;;;;;;33.53;16.73;;;;;;;6.78;79.68;96909.75;5053964;28;20049;-61
2021/12/13 11:29:10;;;;;;;15.88;8.13;;;;;;;7.24;77.71;96977.19;4876753;28;5001091;-61
2021/12/13 11:31:52;;;;;;;10.27;5.07;;;;;;;7.21;76.52;96981.44;5047040;28;20508;-63
2021/12/13 11:34:57;;;;;;;45.83;17.10;;;;;;;7.12;78.12;96972.53;5055263;28;20049;-60
2021/12/13 11:37:53;;;;;;;;;;;;;;;6.94;76.54;96978.66;5059834;28;20061;-67
2021/12/13 11:40:41;;;;;;;13.23;5.88;;;;;;;6.90;77.98;96977.75;4870983;28;5000063;-63
2021/12/13 11:43:25;;;;;;;9.13;5.00;;;;;;;7.03;78.42;96971.88;5050551;28;20057;-65
2021/12/13 11:46:11;;;;;;;9.38;4.90;;;;;;;4.86;77.61;96629.75;5054743;28;20045;-67
2021/12/13 11:49:07;;;;;;;8.50;5.13;;;;;;;7.11;77.62;96968.13;5063319;28;20105;-64
2021/12/13 11:51:42;;;;;;;10.25;5.13;;;;;;;6.98;78.39;96979.56;4892405;28;5001304;-64
2021/12/13 11:54:54;;;;;;;10.45;5.65;;;;;;;6.95;77.65;96975.56;5059981;28;20319;-62
2021/12/13 11:57:42;;;;;;;9.55;4.93;;;;;;;6.80;78.87;96973.53;5044805;28;20049;-65
2021/12/13 12:00:27;;;;;;;7.13;3.70;;;;;;;6.25;80.03;96895.53;4872604;28;5000657;-63
2021/12/13 12:03:31;;;;;;;7.25;2.92;;;;;;;6.89;79.58;96965.91;5051747;28;20052;-62
2021/12/13 12:06:17;;;;;;;;;;;;;;;6.82;79.84;96965.72;5067060;28;20064;-62
2021/12/13 12:09:20;;;;;;;7.22;4.15;;;;;;;6.68;80.26;96953.47;5066934;28;19960;-62
2021/12/13 12:12:15;;;;;;;4.70;2.57;;;;;;;6.46;77.03;96935.53;4875947;28;5000664;-62
2021/12/13 12:14:42;;;;;;;4.40;2.65;;;;;;;6.47;76.96;96941.81;5046708;28;20140;-60
2021/12/13 12:17:09;;;;;;;5.95;2.90;;;;;;;6.86;77.40;96976.84;5052356;28;20064;-61
2021/12/13 12:19:40;;;;;;;9.43;4.53;;;;;;;6.53;77.46;96945.97;5065362;28;20044;-61
2021/12/13 12:22:15;;;;;;;13.53;6.23;;;;;;;6.94;77.10;96973.94;5054661;28;5000524;-63
2021/12/13 12:24:46;;;;;;;8.95;4.82;;;;;;;7.00;76.66;96978.03;5050401;28;20140;-63
2021/12/13 12:27:17;;;;;;;9.40;4.75;;;;;;;7.00;75.48;96980.03;5053670;28;20067;-63
2021/12/13 12:29:56;;;;;;;10.07;5.35;;;;;;;6.69;76.36;96927.53;5054330;28;20590;-65
2021/12/13 12:32:38;;;;;;;8.70;3.97;;;;;;;7.04;73.94;96998.25;5060183;28;20045;-66
2021/12/13 12:35:30;;;;;;;6.78;3.60;;;;;;;6.41;75.38;96938.50;4879723;28;5000959;-62
2021/12/13 12:38:00;;;;;;;11.40;4.73;;;;;;;6.94;76.27;96986.94;5046477;28;20056;-63
2021/12/13 12:40:36;;;;;;;9.88;3.45;;;;;;;6.85;75.60;96987.06;5054383;28;20310;-64
2021/12/13 12:43:16;;;;;;;8.57;3.97;;;;;;;6.86;74.31;96994.16;5055123;28;20044;-63
2021/12/13 12:45:49;;;;;;;7.40;3.15;;;;;;;6.90;74.54;97002.53;4895385;28;5000579;-62
2021/12/13 12:48:21;;;;;;;10.43;4.70;;;;;;;6.53;73.48;96941.22;5049461;28;20057;-62
2021/12/13 12:50:49;;;;;;;14.75;5.07;;;;;;;6.77;74.93;96990.72;5058960;28;20051;-63
2021/12/13 12:53:28;;;;;;;18.77;7.90;;;;;;;6.51;73.31;97004.09;5055188;28;20041;-62
2021/12/13 12:56:02;;;;;;;12.02;6.15;;;;;;;6.66;74.69;96972.28;4882388;28;5000599;-62
2021/12/13 12:58:36;;;;;;;10.05;6.20;;;;;;;6.00;74.48;96856.28;5053576;28;20144;-64
2021/12/13 13:01:05;;;;;;;;;;;;;;;6.90;75.48;96995.06;5051507;28;20059;-61
2021/12/13 13:03:36;;;;;;;20.20;8.25;;;;;;;6.76;74.88;97000.16;5050355;28;19924;-60
2021/12/13 13:06:23;;;;;;;12.60;5.27;;;;;;;6.87;76.32;97006.78;4881499;28;5000620;-66
2021/12/13 13:08:53;;;;;;;14.18;5.57;;;;;;;6.87;74.88;97004.03;5055864;28;20530;-63
2021/12/13 13:11:27;;;;;;;18.67;6.60;;;;;;;6.51;75.99;96949.06;5051922;28;20044;-63
2021/12/13 13:14:15;;;;;;;13.60;6.00;;;;;;;6.92;75.51;97025.81;5057695;28;20056;-65
2021/12/13 13:16:53;;;;;;;14.33;6.21;;;;;;;7.02;74.13;97008.81;5049474;28;5001320;-66
2021/12/13 13:19:23;;;;;;;16.25;5.70;;;;;;;7.03;74.22;97010.41;5061929;28;20624;-69
2021/12/13 13:21:50;;;;;;;12.90;5.85;;;;;;;5.86;72.49;96836.59;5056061;28;20045;-63
2021/12/13 13:24:19;;;;;;;10.93;4.38;;;;;;;5.11;75.60;96724.66;5056714;28;20416;-62
2021/12/13 13:26:47;;;;;;;8.13;3.13;;;;;;;4.54;73.00;96629.53;5055961;28;20065;-62
2021/12/13 13:29:17;;;;;;;12.95;5.38;;;;;;;6.42;74.95;96967.63;4884594;28;5000415;-65
2021/12/13 13:31:57;;;;;;;11.25;5.40;;;;;;;6.72;73.81;96979.97;5053258;28;20422;-64
2021/12/13 13:34:47;;;;;;;17.45;8.43;;;;;;;6.60;74.16;96980.00;5050419;28;20529;-65